Station Historical Data
Daily Summary for February 19, 2017 Units:  Metric    English   Both
« Previous Day
Next Day »
Daily Weekly Monthly Yearly Custom
  High: Low: Average:
Temperature: 7.6 °C 3 °C 5.2 °C
Dew Point: 6.6 °C 2 °C 4.2 °C
Humidity: 94 % 87 % 93 %
Wind Speed: 45.1 km/h 0 km/h 11.3 km/h
Wind Gust: 45.1 km/h - -
Wind:- - SSE
Pressure: 1016.1 hPa 1008.4 hPa -
Precipitation: 0 mm    
Historical Graphs
 
 
Tabular Data for February 19, 2017
Time Temperature Dew Point Pressure Wind Wind Speed Wind Gust Humidity Rainfall Rate (Hourly) solar
00:03 4.6 °C 3.7 °C 1008.4 hPa SSE 14.5 km/h 20.9 km/h 94 % 0 mm 0.00 W/m2
00:08 4.6 °C 3.5 °C 1008.4 hPa South 9.7 km/h 29 km/h 93 % 0 mm 0.00 W/m2
00:13 4.5 °C 3.4 °C 1008.4 hPa SSE 6.4 km/h 24.1 km/h 93 % 0 mm 0.00 W/m2
00:18 4.5 °C 3.4 °C 1008.7 hPa SSE 16.1 km/h 19.3 km/h 93 % 0 mm 0.00 W/m2
00:23 4.4 °C 3.4 °C 1008.7 hPa SE 14.5 km/h 22.5 km/h 93 % 0 mm 0.00 W/m2
00:28 4.4 °C 3.4 °C 1008.7 hPa SE 14.5 km/h 17.7 km/h 93 % 0 mm 0.00 W/m2
00:33 4.4 °C 3.4 °C 1008.7 hPa SSE 6.4 km/h 14.5 km/h 93 % 0 mm 0.00 W/m2
00:38 4.4 °C 3.4 °C 1009 hPa SSE 9.7 km/h 22.5 km/h 93 % 0 mm 0.00 W/m2
00:43 4.4 °C 3.3 °C 1009 hPa South 16.1 km/h 17.7 km/h 93 % 0 mm 0.00 W/m2
00:48 4.3 °C 3.3 °C 1009.4 hPa South 11.3 km/h 14.5 km/h 93 % 0 mm 0.00 W/m2
00:53 4.3 °C 3.4 °C 1009.4 hPa SSE 17.7 km/h 20.9 km/h 94 % 0 mm 0.00 W/m2
00:58 4.3 °C 3.4 °C 1009.4 hPa SSE 8 km/h 19.3 km/h 94 % 0 mm 0.00 W/m2
01:03 4.2 °C 3.3 °C 1009.4 hPa SSE 24.1 km/h 24.1 km/h 94 % 0 mm 0.00 W/m2
01:08 4.2 °C 3.3 °C 1009.7 hPa South 11.3 km/h 16.1 km/h 94 % 0 mm 0.00 W/m2
01:14 4.2 °C 3.2 °C 1009.7 hPa SSE 22.5 km/h 22.5 km/h 93 % 0 mm 0.00 W/m2
01:19 4.1 °C 3.1 °C 1010 hPa South 11.3 km/h 14.5 km/h 93 % 0 mm 0.00 W/m2
01:24 4.1 °C 3.1 °C 1010 hPa South 9.7 km/h 20.9 km/h 93 % 0 mm 0.00 W/m2
01:29 4 °C 2.9 °C 1010 hPa SSW 16.1 km/h 19.3 km/h 93 % 0 mm 0.00 W/m2
01:34 3.9 °C 3.1 °C 1010 hPa South 12.9 km/h 24.1 km/h 94 % 0 mm 0.00 W/m2
01:39 3.8 °C 2.9 °C 1010 hPa SSE 22.5 km/h 27.4 km/h 94 % 0 mm 0.00 W/m2
01:44 3.7 °C 2.7 °C 1010 hPa SSE 17.7 km/h 25.7 km/h 93 % 0 mm 0.00 W/m2
01:49 3.7 °C 2.8 °C 1010 hPa SSE 20.9 km/h 25.7 km/h 94 % 0 mm 0.00 W/m2
01:54 3.6 °C 2.7 °C 1010 hPa South 17.7 km/h 25.7 km/h 94 % 0 mm 0.00 W/m2
01:59 3.5 °C 2.5 °C 1010 hPa SSE 14.5 km/h 22.5 km/h 93 % 0 mm 0.00 W/m2
02:04 3.4 °C 2.4 °C 1010 hPa SSE 16.1 km/h 25.7 km/h 93 % 0 mm 0.00 W/m2
02:09 3.4 °C 2.4 °C 1010 hPa South 14.5 km/h 20.9 km/h 93 % 0 mm 0.00 W/m2
02:14 3.3 °C 2.4 °C 1010.4 hPa SSE 14.5 km/h 24.1 km/h 94 % 0 mm 0.00 W/m2
02:19 3.3 °C 2.4 °C 1010.7 hPa SSE 6.4 km/h 24.1 km/h 94 % 0 mm 0.00 W/m2
02:24 3.3 °C 2.4 °C 1010.7 hPa South 17.7 km/h 19.3 km/h 94 % 0 mm 0.00 W/m2
02:29 3.3 °C 2.4 °C 1010.7 hPa South 19.3 km/h 22.5 km/h 94 % 0 mm 0.00 W/m2
02:34 3.2 °C 2.3 °C 1010.7 hPa SSE 11.3 km/h 14.5 km/h 94 % 0 mm 0.00 W/m2
02:39 3.2 °C 2.3 °C 1011.1 hPa South 11.3 km/h 19.3 km/h 94 % 0 mm 0.00 W/m2
02:44 3.2 °C 2.2 °C 1011.1 hPa South 9.7 km/h 25.7 km/h 93 % 0 mm 0.00 W/m2
02:49 3.2 °C 2.2 °C 1011.1 hPa South 11.3 km/h 17.7 km/h 93 % 0 mm 0.00 W/m2
02:54 3.2 °C 2.2 °C 1011.1 hPa SSE 8 km/h 16.1 km/h 93 % 0 mm 0.00 W/m2
02:59 3.2 °C 2.2 °C 1011.1 hPa SSE 3.2 km/h 17.7 km/h 93 % 0 mm 0.00 W/m2
03:04 3.1 °C 2.1 °C 1011.1 hPa SSE 11.3 km/h 19.3 km/h 93 % 0 mm 0.00 W/m2
03:10 3.1 °C 2.1 °C 1011.1 hPa SE 9.7 km/h 19.3 km/h 93 % 0 mm 0.00 W/m2
03:15 3.1 °C 2.1 °C 1011.1 hPa SSE 3.2 km/h 16.1 km/h 93 % 0 mm 0.00 W/m2
03:20 3.1 °C 2.1 °C 1011.1 hPa SSE 9.7 km/h 14.5 km/h 93 % 0 mm 0.00 W/m2
03:25 3.1 °C 2.1 °C 1011.1 hPa SSE 6.4 km/h 12.9 km/h 93 % 0 mm 0.00 W/m2
03:30 3.1 °C 2.1 °C 1011.1 hPa SE 11.3 km/h 17.7 km/h 93 % 0 mm 0.00 W/m2
03:35 3.1 °C 2.1 °C 1011.1 hPa SE 3.2 km/h 14.5 km/h 93 % 0 mm 0.00 W/m2
03:40 3.1 °C 2.1 °C 1011.1 hPa SE 8 km/h 14.5 km/h 93 % 0 mm 0.00 W/m2
03:45 3.1 °C 2.1 °C 1011.1 hPa SE 9.7 km/h 11.3 km/h 93 % 0 mm 0.00 W/m2
03:46 3.1 °C 2.1 °C 1011.1 hPa SE 9.7 km/h 9.7 km/h 93 % 0 mm 0.00 W/m2
03:51 3.1 °C 2.1 °C 1011.1 hPa SE 11.3 km/h 14.5 km/h 93 % 0 mm 0.00 W/m2
03:57 3.1 °C 2.1 °C 1011.1 hPa SE 3.2 km/h 12.9 km/h 93 % 0 mm 0.00 W/m2
04:01 3.1 °C 2.1 °C 1011.1 hPa SSE 8 km/h 12.9 km/h 93 % 0 mm 0.00 W/m2
04:07 3.1 °C 2.1 °C 1011.1 hPa Calm     93 % 0 mm 0.00 W/m2
04:12 3 °C 2 °C 1011.1 hPa Calm     93 % 0 mm 0.00 W/m2
04:17 3 °C 2.1 °C 1011.1 hPa Calm     94 % 0 mm 0.00 W/m2
04:22 3 °C 2.1 °C 1011.1 hPa Calm     94 % 0 mm 0.00 W/m2
04:27 3 °C 2 °C 1011.1 hPa Calm     93 % 0 mm 0.00 W/m2
04:32 3 °C 2.1 °C 1010.7 hPa Calm     94 % 0 mm 0.00 W/m2
04:37 3 °C 2.1 °C 1010.7 hPa Calm     94 % 0 mm 0.00 W/m2
04:42 3 °C 2.1 °C 1010.7 hPa Calm     94 % 0 mm 0.00 W/m2
04:47 3 °C 2 °C 1010.7 hPa Calm     93 % 0 mm 0.00 W/m2
04:52 3 °C 2.1 °C 1010.4 hPa Calm     94 % 0 mm 0.00 W/m2
04:57 3 °C 2.1 °C 1010.4 hPa Calm     94 % 0 mm 0.00 W/m2
05:02 3 °C 2.1 °C 1010.4 hPa SE 9.7 km/h 17.7 km/h 94 % 0 mm 0.00 W/m2
05:07 3 °C 2 °C 1010 hPa SE 22.5 km/h 27.4 km/h 93 % 0 mm 0.00 W/m2
05:12 3 °C 2.1 °C 1010.4 hPa SE 11.3 km/h 16.1 km/h 94 % 0 mm 0.00 W/m2
05:17 3 °C 2 °C 1010.4 hPa ESE 12.9 km/h 19.3 km/h 93 % 0 mm 0.00 W/m2
05:22 3.1 °C 2.1 °C 1010.4 hPa SE 9.7 km/h 9.7 km/h 93 % 0 mm 0.00 W/m2
05:27 3.1 °C 2.1 °C 1010 hPa ESE 11.3 km/h 12.9 km/h 93 % 0 mm 0.00 W/m2
05:32 3.1 °C 2.1 °C 1010.4 hPa SE 11.3 km/h 17.7 km/h 93 % 0 mm 0.00 W/m2
05:37 3.1 °C 2.1 °C 1010.4 hPa ESE 3.2 km/h 11.3 km/h 93 % 0 mm 0.00 W/m2
05:42 3.1 °C 2.1 °C 1010.4 hPa ESE 14.5 km/h 19.3 km/h 93 % 0 mm 0.00 W/m2
05:47 3.1 °C 2.1 °C 1010.4 hPa SE 14.5 km/h 17.7 km/h 93 % 0 mm 0.00 W/m2
05:52 3.2 °C 2.2 °C 1010.4 hPa SE 9.7 km/h 14.5 km/h 93 % 0 mm 0.00 W/m2
05:57 3.2 °C 2.3 °C 1010.4 hPa SE 8 km/h 12.9 km/h 94 % 0 mm 0.00 W/m2
06:02 3.2 °C 2.3 °C 1010.4 hPa SE 17.7 km/h 22.5 km/h 94 % 0 mm 0.00 W/m2
06:07 3.2 °C 2.2 °C 1010 hPa ESE 9.7 km/h 19.3 km/h 93 % 0 mm 0.00 W/m2
06:12 3.3 °C 2.3 °C 1010.4 hPa Calm     93 % 0 mm 0.00 W/m2
06:17 3.3 °C 2.3 °C 1010.7 hPa SE 6.4 km/h 12.9 km/h 93 % 0 mm 0.00 W/m2
06:22 3.3 °C 2.3 °C 1010.7 hPa Calm     93 % 0 mm 0.00 W/m2
06:27 3.3 °C 2.3 °C 1010.7 hPa Calm     93 % 0 mm 0.00 W/m2
06:32 3.4 °C 2.4 °C 1010.7 hPa Calm   1.6 km/h 93 % 0 mm 0.00 W/m2
06:37 3.4 °C 2.4 °C 1010.7 hPa Calm     93 % 0 mm 0.00 W/m2
06:42 3.4 °C 2.4 °C 1010.7 hPa Calm     93 % 0 mm 0.00 W/m2
06:47 3.5 °C 2.5 °C 1011.1 hPa Calm     93 % 0 mm 0.00 W/m2
06:52 3.5 °C 2.5 °C 1010.7 hPa Calm     93 % 0 mm 0.00 W/m2
06:57 3.5 °C 2.5 °C 1011.1 hPa Calm     93 % 0 mm 5.00 W/m2
07:02 3.5 °C 2.5 °C 1010.7 hPa Calm     93 % 0 mm 7.00 W/m2
07:07 3.6 °C 2.6 °C 1011.1 hPa Calm     93 % 0 mm 12.00 W/m2
07:12 3.6 °C 2.6 °C 1011.1 hPa Calm     93 % 0 mm 26.00 W/m2
07:17 3.6 °C 2.7 °C 1011.1 hPa Calm     94 % 0 mm 60.00 W/m2
07:22 3.6 °C 2.7 °C 1011.1 hPa Calm   1.6 km/h 94 % 0 mm 37.00 W/m2
07:27 3.6 °C 2.7 °C 1011.4 hPa SE 9.7 km/h 17.7 km/h 94 % 0 mm 47.00 W/m2
07:32 3.6 °C 2.7 °C 1011.4 hPa SE 3.2 km/h 14.5 km/h 94 % 0 mm 49.00 W/m2
07:37 3.7 °C 2.8 °C 1011.4 hPa Calm     94 % 0 mm 44.00 W/m2
07:42 3.7 °C 2.8 °C 1011.4 hPa Calm     94 % 0 mm 54.00 W/m2
07:47 3.7 °C 2.7 °C 1011.4 hPa Calm     93 % 0 mm 97.00 W/m2
07:52 3.8 °C 2.8 °C 1011.4 hPa Calm     93 % 0 mm 100.00 W/m2
07:57 3.8 °C 2.8 °C 1011.4 hPa Calm     93 % 0 mm 102.00 W/m2
08:02 3.9 °C 2.9 °C 1011.7 hPa Calm     93 % 0 mm 155.00 W/m2
08:07 3.9 °C 3.1 °C 1011.4 hPa Calm     94 % 0 mm 72.00 W/m2
08:12 4 °C 3.1 °C 1011.4 hPa Calm     94 % 0 mm 144.00 W/m2
08:17 4 °C 3.1 °C 1011.7 hPa SSE 8 km/h 8 km/h 94 % 0 mm 176.00 W/m2
08:22 4.1 °C 3.2 °C 1011.7 hPa SSE 12.9 km/h 14.5 km/h 94 % 0 mm 128.00 W/m2
08:27 4.1 °C 3.1 °C 1011.7 hPa SSE 9.7 km/h 14.5 km/h 93 % 0 mm 132.00 W/m2
08:32 4.1 °C 3.1 °C 1011.7 hPa SSE 9.7 km/h 16.1 km/h 93 % 0 mm 142.00 W/m2
08:37 4.1 °C 3.1 °C 1011.7 hPa SSE 11.3 km/h 16.1 km/h 93 % 0 mm 153.00 W/m2
08:42 4.2 °C 3.2 °C 1011.7 hPa SSE 9.7 km/h 14.5 km/h 93 % 0 mm 155.00 W/m2
08:47 4.2 °C 3.3 °C 1011.7 hPa South 16.1 km/h 16.1 km/h 94 % 0 mm 114.00 W/m2
08:52 4.2 °C 3.3 °C 1012.1 hPa SSE 9.7 km/h 14.5 km/h 94 % 0 mm 134.00 W/m2
08:57 4.2 °C 3.3 °C 1012.1 hPa SSE 12.9 km/h 14.5 km/h 94 % 0 mm 137.00 W/m2
09:02 4.2 °C 3.3 °C 1012.1 hPa Calm   1.6 km/h 94 % 0 mm 167.00 W/m2
09:08 4.2 °C 3.3 °C 1012.1 hPa SSE 8 km/h 17.7 km/h 94 % 0 mm 141.00 W/m2
09:12 4.3 °C 3.4 °C 1012.1 hPa SSE 3.2 km/h 12.9 km/h 94 % 0 mm 181.00 W/m2
09:18 4.3 °C 3.4 °C 1012.4 hPa Calm   1.6 km/h 94 % 0 mm 221.00 W/m2
09:23 4.4 °C 3.4 °C 1012.4 hPa Calm   1.6 km/h 93 % 0 mm 188.00 W/m2
09:28 4.5 °C 3.4 °C 1012.8 hPa Calm   1.6 km/h 93 % 0 mm 218.00 W/m2
09:30 4.5 °C 3.4 °C 1012.8 hPa Calm   1.6 km/h 93 % 0 mm 213.00 W/m2
09:34 4.6 °C 3.7 °C 1012.8 hPa Calm   1.6 km/h 94 % 0 mm 214.00 W/m2
09:39 4.7 °C 3.8 °C 1012.8 hPa SSE 6.4 km/h 16.1 km/h 94 % 0 mm 183.00 W/m2
09:44 4.8 °C 3.7 °C 1013.1 hPa SSE 12.9 km/h 22.5 km/h 93 % 0 mm 214.00 W/m2
09:49 4.8 °C 3.8 °C 1012.8 hPa SE 1.6 km/h 19.3 km/h 93 % 0 mm 176.00 W/m2
09:54 4.9 °C 4 °C 1012.8 hPa SSE 9.7 km/h 19.3 km/h 94 % 0 mm 234.00 W/m2
09:59 5 °C 4.1 °C 1012.8 hPa South 16.1 km/h 24.1 km/h 94 % 0 mm 260.00 W/m2
10:04 5.1 °C 4.2 °C 1012.8 hPa SE 6.4 km/h 17.7 km/h 94 % 0 mm 199.00 W/m2
10:09 5.2 °C 4.3 °C 1012.8 hPa SSW 14.5 km/h 19.3 km/h 94 % 0 mm 223.00 W/m2
10:14 5.2 °C 4.3 °C 1012.8 hPa South 14.5 km/h 22.5 km/h 94 % 0 mm 206.00 W/m2
10:19 5.3 °C 4.4 °C 1012.8 hPa SSE 8 km/h 22.5 km/h 94 % 0 mm 248.00 W/m2
10:24 5.3 °C 4.4 °C 1013.1 hPa SSE 12.9 km/h 25.7 km/h 94 % 0 mm 239.00 W/m2
10:29 5.3 °C 4.3 °C 1013.1 hPa South 8 km/h 20.9 km/h 93 % 0 mm 278.00 W/m2
10:34 5.4 °C 4.4 °C 1013.1 hPa South 1.6 km/h 22.5 km/h 93 % 0 mm 306.00 W/m2
10:39 5.6 °C 4.5 °C 1013.1 hPa South 1.6 km/h 19.3 km/h 93 % 0 mm 350.00 W/m2
10:44 5.7 °C 4.6 °C 1013.1 hPa South 12.9 km/h 25.7 km/h 93 % 0 mm 299.00 W/m2
10:49 5.8 °C 4.8 °C 1013.1 hPa SSE 8 km/h 20.9 km/h 93 % 0 mm 311.00 W/m2
10:54 5.9 °C 4.7 °C 1013.1 hPa South 9.7 km/h 17.7 km/h 92 % 0 mm 290.00 W/m2
10:59 6 °C 4.8 °C 1013.8 hPa South 12.9 km/h 17.7 km/h 92 % 0 mm 211.00 W/m2
11:04 6.1 °C 4.7 °C 1013.4 hPa SSE 8 km/h 14.5 km/h 91 % 0 mm 262.00 W/m2
11:09 6.1 °C 4.9 °C 1013.4 hPa Calm   14.5 km/h 92 % 0 mm 292.00 W/m2
11:14 6.2 °C 5 °C 1013.4 hPa SSE 17.7 km/h 22.5 km/h 92 % 0 mm 367.00 W/m2
11:19 6.2 °C 4.9 °C 1013.1 hPa South 8 km/h 17.7 km/h 91 % 0 mm 308.00 W/m2
11:24 6.3 °C 5 °C 1013.1 hPa SSE 1.6 km/h 1.6 km/h 91 % 0 mm 241.00 W/m2
11:29 6.4 °C 4.9 °C 1013.4 hPa Calm   1.6 km/h 90 % 0 mm 178.00 W/m2
11:34 6.4 °C 4.9 °C 1013.4 hPa SSW 16.1 km/h 19.3 km/h 90 % 0 mm 155.00 W/m2
11:39 6.4 °C 4.9 °C 1013.4 hPa South 16.1 km/h 17.7 km/h 90 % 0 mm 155.00 W/m2
11:44 6.4 °C 4.9 °C 1013.4 hPa SW 12.9 km/h 20.9 km/h 90 % 0 mm 134.00 W/m2
11:54 6.4 °C 4.9 °C 1013.4 hPa SSW 6.4 km/h 22.5 km/h 90 % 0 mm 186.00 W/m2
11:59 6.4 °C 4.9 °C 1013.4 hPa SSE 17.7 km/h 19.3 km/h 90 % 0 mm 160.00 W/m2
12:04 6.4 °C 4.9 °C 1013.1 hPa South 11.3 km/h 19.3 km/h 90 % 0 mm 162.00 W/m2
12:09 6.3 °C 4.8 °C 1013.4 hPa SSE 6.4 km/h 20.9 km/h 90 % 0 mm 158.00 W/m2
12:19 6.4 °C 4.9 °C 1013.1 hPa SSE 11.3 km/h 14.5 km/h 90 % 0 mm 134.00 W/m2
12:29 6.4 °C 4.9 °C 1013.1 hPa South 14.5 km/h 22.5 km/h 90 % 0 mm 141.00 W/m2
12:34 6.4 °C 4.9 °C 1013.1 hPa SSE 8 km/h 19.3 km/h 90 % 0 mm 107.00 W/m2
12:39 6.3 °C 4.8 °C 1013.1 hPa Calm   14.5 km/h 90 % 0 mm 114.00 W/m2
12:44 6.4 °C 4.9 °C 1013.1 hPa Calm   1.6 km/h 90 % 0 mm 114.00 W/m2
12:49 6.4 °C 4.9 °C 1013.4 hPa Calm   16.1 km/h 90 % 0 mm 81.00 W/m2
12:54 6.3 °C 4.8 °C 1013.1 hPa Calm   6.4 km/h 90 % 0 mm 93.00 W/m2
12:59 6.3 °C 4.8 °C 1013.1 hPa South 20.9 km/h 20.9 km/h 90 % 0 mm 102.00 W/m2
13:04 6.2 °C 4.6 °C 1013.4 hPa South 6.4 km/h 22.5 km/h 89 % 0 mm 81.00 W/m2
13:09 6.2 °C 4.6 °C 1013.4 hPa Calm   19.3 km/h 89 % 0 mm 63.00 W/m2
13:14 6.2 °C 4.7 °C 1013.4 hPa South 9.7 km/h 19.3 km/h 90 % 0 mm 72.00 W/m2
13:19 6.1 °C 4.4 °C 1013.4 hPa SSW 20.9 km/h 32.2 km/h 89 % 0 mm 127.00 W/m2
13:24 5.9 °C 3.9 °C 1013.4 hPa WSW 27.4 km/h 38.6 km/h 87 % 0 mm 118.00 W/m2
13:29 5.8 °C 4.6 °C 1013.1 hPa South 11.3 km/h 40.2 km/h 92 % 0 mm 130.00 W/m2
13:34 5.7 °C 3.9 °C 1013.1 hPa South 16.1 km/h 41.8 km/h 88 % 0 mm 104.00 W/m2
13:39 5.6 °C 3.7 °C 1013.1 hPa South 24.1 km/h 32.2 km/h 88 % 0 mm 102.00 W/m2
13:45 5.4 °C 3.8 °C 1013.1 hPa SSE 11.3 km/h 33.8 km/h 89 % 0 mm 86.00 W/m2
13:49 5.3 °C 3.7 °C 1012.8 hPa South 6.4 km/h 24.1 km/h 89 % 0 mm 98.00 W/m2
13:52 5.3 °C 3.6 °C 1012.8 hPa SSE 12.9 km/h 19.3 km/h 89 % 0 mm 88.00 W/m2
13:57 5.3 °C 3.8 °C 1012.8 hPa South 14.5 km/h 19.3 km/h 90 % 0 mm 104.00 W/m2
14:02 5.2 °C 3.7 °C 1012.8 hPa SE 11.3 km/h 25.7 km/h 90 % 0 mm 105.00 W/m2
14:07 5.2 °C 3.7 °C 1012.4 hPa SSE 9.7 km/h 12.9 km/h 90 % 0 mm 128.00 W/m2
14:12 5.3 °C 3.9 °C 1012.4 hPa SE 12.9 km/h 22.5 km/h 91 % 0 mm 172.00 W/m2
14:17 5.3 °C 4 °C 1012.8 hPa SSE 17.7 km/h 19.3 km/h 91 % 0 mm 165.00 W/m2
14:22 5.4 °C 4.3 °C 1012.4 hPa South 11.3 km/h 22.5 km/h 92 % 0 mm 134.00 W/m2
14:27 5.6 °C 4.3 °C 1012.4 hPa SE 12.9 km/h 22.5 km/h 92 % 0 mm 153.00 W/m2
14:32 5.6 °C 4.4 °C 1012.4 hPa South 17.7 km/h 38.6 km/h 92 % 0 mm 121.00 W/m2
14:37 5.7 °C 4.4 °C 1012.4 hPa South 4.8 km/h 17.7 km/h 92 % 0 mm 104.00 W/m2
14:42 5.7 °C 4.6 °C 1012.8 hPa South 16.1 km/h 24.1 km/h 92 % 0 mm 102.00 W/m2
14:47 5.7 °C 4.6 °C 1012.8 hPa SE 16.1 km/h 19.3 km/h 92 % 0 mm 88.00 W/m2
14:52 5.7 °C 4.7 °C 1012.8 hPa SSE 20.9 km/h 22.5 km/h 93 % 0 mm 76.00 W/m2
14:57 5.7 °C 4.7 °C 1013.1 hPa South 16.1 km/h 19.3 km/h 93 % 0 mm 67.00 W/m2
15:02 5.7 °C 4.7 °C 1012.8 hPa South 9.7 km/h 19.3 km/h 93 % 0 mm 70.00 W/m2
15:07 5.8 °C 4.7 °C 1012.8 hPa SSW 16.1 km/h 20.9 km/h 93 % 0 mm 84.00 W/m2
15:12 5.8 °C 4.7 °C 1012.8 hPa SSE 14.5 km/h 17.7 km/h 93 % 1.78 mm 98.00 W/m2
15:17 5.8 °C 4.7 °C 1012.8 hPa South 6.4 km/h 14.5 km/h 93 % 1.78 mm 77.00 W/m2
15:22 5.8 °C 4.7 °C 1013.1 hPa South 17.7 km/h 19.3 km/h 93 % 1.27 mm 56.00 W/m2
15:27 5.8 °C 4.7 °C 1013.1 hPa South 9.7 km/h 17.7 km/h 93 % 1.27 mm 53.00 W/m2
15:32 5.8 °C 4.7 °C 1013.1 hPa Calm   1.6 km/h 93 % 1.27 mm 30.00 W/m2
15:33 5.8 °C 4.7 °C 1013.1 hPa South 9.7 km/h 14.5 km/h 93 % 1.27 mm 28.00 W/m2
15:38 5.8 °C 4.7 °C 1013.1 hPa SSE 9.7 km/h 17.7 km/h 93 % 1.27 mm 32.00 W/m2
15:43 5.8 °C 4.7 °C 1013.1 hPa SSW 8 km/h 19.3 km/h 93 % 1.27 mm 47.00 W/m2
15:48 5.7 °C 4.7 °C 1013.1 hPa South 6.4 km/h 14.5 km/h 93 % 1.02 mm 39.00 W/m2
15:53 5.7 °C 4.7 °C 1013.1 hPa South 14.5 km/h 14.5 km/h 93 % 1.02 mm 32.00 W/m2
15:58 5.7 °C 4.7 °C 1012.8 hPa South 6.4 km/h 17.7 km/h 93 % 1.02 mm 56.00 W/m2
16:03 5.8 °C 4.7 °C 1012.8 hPa SSE 11.3 km/h 20.9 km/h 93 % 0 mm 67.00 W/m2
16:08 5.8 °C 4.7 °C 1013.1 hPa SSE 11.3 km/h 14.5 km/h 93 % 0 mm 58.00 W/m2
16:13 5.8 °C 4.8 °C 1013.1 hPa SSE 12.9 km/h 16.1 km/h 93 % 0 mm 19.00 W/m2
16:19 5.8 °C 4.9 °C 1013.1 hPa South 14.5 km/h 19.3 km/h 94 % 0 mm 28.00 W/m2
16:24 5.8 °C 4.8 °C 1013.1 hPa SSE 6.4 km/h 16.1 km/h 93 % 0 mm 33.00 W/m2
16:29 5.9 °C 4.8 °C 1013.1 hPa SSE 17.7 km/h 20.9 km/h 93 % 0 mm 19.00 W/m2
16:34 5.9 °C 4.8 °C 1012.8 hPa SSE 6.4 km/h 22.5 km/h 93 % 0 mm 14.00 W/m2
16:39 5.9 °C 4.9 °C 1013.1 hPa South 11.3 km/h 24.1 km/h 93 % 0 mm 14.00 W/m2
16:44 5.9 °C 4.9 °C 1013.1 hPa SSE 14.5 km/h 20.9 km/h 93 % 0 mm 9.00 W/m2
16:49 5.9 °C 4.9 °C 1013.1 hPa SSE 9.7 km/h 19.3 km/h 93 % 0 mm 7.00 W/m2
16:54 5.9 °C 4.9 °C 1013.1 hPa SSE 19.3 km/h 20.9 km/h 93 % 2.29 mm 12.00 W/m2
16:59 5.9 °C 4.9 °C 1013.1 hPa SSE 11.3 km/h 22.5 km/h 93 % 2.03 mm 12.00 W/m2
17:04 5.9 °C 4.9 °C 1013.1 hPa SSE 17.7 km/h 20.9 km/h 93 % 1.27 mm 7.00 W/m2
17:09 5.9 °C 4.9 °C 1013.1 hPa SSE 16.1 km/h 16.1 km/h 93 % 0 mm 5.00 W/m2
17:14 6 °C 4.9 °C 1013.1 hPa South 16.1 km/h 20.9 km/h 93 % 0 mm 7.00 W/m2
17:19 6 °C 4.9 °C 1013.1 hPa SSE 24.1 km/h 24.1 km/h 93 % 0 mm 5.00 W/m2
17:24 6 °C 4.9 °C 1013.4 hPa South 25.7 km/h 25.7 km/h 93 % 0 mm 5.00 W/m2
17:29 6.1 °C 5 °C 1013.4 hPa SSE 9.7 km/h 20.9 km/h 93 % 0 mm 0.00 W/m2
17:34 6.1 °C 5 °C 1013.4 hPa South 11.3 km/h 19.3 km/h 93 % 0 mm 0.00 W/m2
17:39 6.1 °C 5.1 °C 1013.4 hPa SSE 14.5 km/h 16.1 km/h 93 % 0 mm 0.00 W/m2
17:44 6.1 °C 5.1 °C 1013.4 hPa SSE 12.9 km/h 22.5 km/h 93 % 0 mm 0.00 W/m2
17:49 6.1 °C 5.1 °C 1013.8 hPa SSE 12.9 km/h 19.3 km/h 93 % 0 mm 0.00 W/m2
17:54 6.2 °C 5.1 °C 1013.8 hPa SSE 20.9 km/h 20.9 km/h 93 % 0 mm 0.00 W/m2
17:59 6.2 °C 5.1 °C 1013.4 hPa South 16.1 km/h 27.4 km/h 93 % 0 mm 0.00 W/m2
18:04 6.2 °C 5.2 °C 1013.8 hPa SE 8 km/h 29 km/h 93 % 0 mm 0.00 W/m2
18:09 6.2 °C 5.2 °C 1013.8 hPa SE 14.5 km/h 24.1 km/h 93 % 0 mm 0.00 W/m2
18:14 6.3 °C 5.2 °C 1013.8 hPa SSE 14.5 km/h 20.9 km/h 93 % 0 mm 0.00 W/m2
18:19 6.3 °C 5.2 °C 1013.8 hPa SSE 11.3 km/h 20.9 km/h 93 % 0 mm 0.00 W/m2
18:24 6.3 °C 5.3 °C 1014.1 hPa SSE 16.1 km/h 22.5 km/h 93 % 0 mm 0.00 W/m2
18:29 6.3 °C 5.3 °C 1014.1 hPa South 14.5 km/h 27.4 km/h 93 % 0 mm 0.00 W/m2
18:34 6.3 °C 5.3 °C 1014.1 hPa SSE 19.3 km/h 22.5 km/h 93 % 0 mm 0.00 W/m2
18:39 6.4 °C 5.3 °C 1014.4 hPa South 14.5 km/h 24.1 km/h 93 % 0 mm 0.00 W/m2
18:44 6.4 °C 5.3 °C 1014.1 hPa Calm   19.3 km/h 93 % 0 mm 0.00 W/m2
18:49 6.4 °C 5.4 °C 1014.1 hPa SE 14.5 km/h 22.5 km/h 93 % 0 mm 0.00 W/m2
18:54 6.4 °C 5.4 °C 1014.4 hPa South 14.5 km/h 24.1 km/h 93 % 0 mm 0.00 W/m2
18:59 6.5 °C 5.4 °C 1014.4 hPa South 14.5 km/h 30.6 km/h 93 % 0 mm 0.00 W/m2
19:04 6.5 °C 5.4 °C 1014.4 hPa South 11.3 km/h 29 km/h 93 % 0 mm 0.00 W/m2
19:09 6.5 °C 5.4 °C 1014.4 hPa SSE 12.9 km/h 32.2 km/h 93 % 0 mm 0.00 W/m2
19:14 6.6 °C 5.5 °C 1014.4 hPa SSE 14.5 km/h 27.4 km/h 93 % 0 mm 0.00 W/m2
19:19 6.6 °C 5.5 °C 1014.4 hPa South 6.4 km/h 24.1 km/h 93 % 0 mm 0.00 W/m2
19:24 6.6 °C 5.6 °C 1014.4 hPa SE 19.3 km/h 25.7 km/h 93 % 0 mm 0.00 W/m2
19:29 6.6 °C 5.6 °C 1014.4 hPa SSE 20.9 km/h 22.5 km/h 93 % 0 mm 0.00 W/m2
19:34 6.7 °C 5.6 °C 1014.8 hPa South 20.9 km/h 32.2 km/h 93 % 0 mm 0.00 W/m2
19:39 6.7 °C 5.6 °C 1014.8 hPa SE 17.7 km/h 29 km/h 93 % 0 mm 0.00 W/m2
19:44 6.7 °C 5.6 °C 1014.8 hPa SSE 17.7 km/h 20.9 km/h 93 % 0 mm 0.00 W/m2
19:49 6.7 °C 5.7 °C 1015.1 hPa South 12.9 km/h 30.6 km/h 93 % 0 mm 0.00 W/m2
19:54 6.7 °C 5.7 °C 1015.1 hPa SSE 16.1 km/h 25.7 km/h 93 % 0 mm 0.00 W/m2
19:59 6.8 °C 5.7 °C 1015.5 hPa South 33.8 km/h 35.4 km/h 93 % 0 mm 0.00 W/m2
20:04 6.8 °C 5.7 °C 1015.5 hPa SSE 19.3 km/h 24.1 km/h 93 % 0 mm 0.00 W/m2
20:09 6.8 °C 5.7 °C 1015.5 hPa SSE 14.5 km/h 27.4 km/h 93 % 0 mm 0.00 W/m2
20:14 6.8 °C 5.8 °C 1015.1 hPa South 9.7 km/h 25.7 km/h 93 % 0 mm 0.00 W/m2
20:19 6.8 °C 5.8 °C 1015.1 hPa SE 16.1 km/h 30.6 km/h 93 % 0 mm 0.00 W/m2
20:24 6.8 °C 5.8 °C 1015.5 hPa SSE 19.3 km/h 25.7 km/h 93 % 0 mm 0.00 W/m2
20:29 6.9 °C 5.8 °C 1015.5 hPa South 16.1 km/h 29 km/h 93 % 0 mm 0.00 W/m2
20:34 6.9 °C 5.8 °C 1015.5 hPa South 22.5 km/h 35.4 km/h 93 % 0 mm 0.00 W/m2
20:39 6.9 °C 5.9 °C 1015.5 hPa SSE 12.9 km/h 22.5 km/h 93 % 0 mm 0.00 W/m2
20:44 6.9 °C 5.9 °C 1015.5 hPa SSE 12.9 km/h 24.1 km/h 93 % 0 mm 0.00 W/m2
20:49 7 °C 5.9 °C 1015.5 hPa South 22.5 km/h 32.2 km/h 93 % 0 mm 0.00 W/m2
20:54 7 °C 5.9 °C 1015.8 hPa SSE 6.4 km/h 19.3 km/h 93 % 0 mm 0.00 W/m2
20:59 7 °C 5.9 °C 1015.5 hPa SE 16.1 km/h 29 km/h 93 % 0 mm 0.00 W/m2
21:04 7.1 °C 6 °C 1015.5 hPa SSE 17.7 km/h 27.4 km/h 93 % 0 mm 0.00 W/m2
21:09 7.1 °C 6 °C 1015.8 hPa SE 16.1 km/h 22.5 km/h 93 % 0 mm 0.00 W/m2
21:14 7.1 °C 6.1 °C 1015.1 hPa SE 24.1 km/h 32.2 km/h 93 % 0 mm 0.00 W/m2
21:19 7.1 °C 6.1 °C 1015.5 hPa SE 3.2 km/h 25.7 km/h 93 % 0 mm 0.00 W/m2
21:24 7.2 °C 6.1 °C 1015.5 hPa SSE 27.4 km/h 35.4 km/h 93 % 0 mm 0.00 W/m2
21:29 7.2 °C 6.1 °C 1015.5 hPa South 14.5 km/h 24.1 km/h 93 % 0 mm 0.00 W/m2
21:34 7.2 °C 6.2 °C 1015.1 hPa South 14.5 km/h 27.4 km/h 93 % 0 mm 0.00 W/m2
21:39 7.2 °C 6.2 °C 1015.1 hPa SSE 11.3 km/h 32.2 km/h 93 % 0 mm 0.00 W/m2
21:44 7.2 °C 6.2 °C 1015.5 hPa SSW 11.3 km/h 27.4 km/h 93 % 0 mm 0.00 W/m2
21:49 7.2 °C 6.2 °C 1015.5 hPa SSE 19.3 km/h 30.6 km/h 93 % 0 mm 0.00 W/m2
21:54 7.3 °C 6.2 °C 1015.5 hPa SSE 17.7 km/h 30.6 km/h 93 % 0 mm 0.00 W/m2
21:59 7.3 °C 6.2 °C 1015.5 hPa South 24.1 km/h 33.8 km/h 93 % 0 mm 0.00 W/m2
22:04 7.3 °C 6.4 °C 1015.8 hPa South 22.5 km/h 32.2 km/h 94 % 0 mm 0.00 W/m2
22:09 7.3 °C 6.4 °C 1015.8 hPa SE 45.1 km/h 45.1 km/h 94 % 0 mm 0.00 W/m2
22:14 7.4 °C 6.5 °C 1015.8 hPa SSE 14.5 km/h 27.4 km/h 94 % 0 mm 0.00 W/m2
22:19 7.4 °C 6.5 °C 1015.8 hPa SSE 14.5 km/h 32.2 km/h 94 % 0 mm 0.00 W/m2
22:24 7.4 °C 6.6 °C 1015.8 hPa ESE 12.9 km/h 29 km/h 94 % 0 mm 0.00 W/m2
22:29 7.4 °C 6.6 °C 1015.8 hPa SSE 19.3 km/h 30.6 km/h 94 % 0 mm 0.00 W/m2
22:34 7.4 °C 6.6 °C 1015.8 hPa SSE 17.7 km/h 27.4 km/h 94 % 0 mm 0.00 W/m2
22:39 7.4 °C 6.6 °C 1016.1 hPa SSE 17.7 km/h 22.5 km/h 94 % 0 mm 0.00 W/m2
22:44 7.4 °C 6.6 °C 1016.1 hPa South 6.4 km/h 25.7 km/h 94 % 0 mm 0.00 W/m2
22:49 7.5 °C 6.6 °C 1016.1 hPa SSE 12.9 km/h 37 km/h 94 % 0 mm 0.00 W/m2
22:54 7.5 °C 6.6 °C 1015.8 hPa SE 19.3 km/h 35.4 km/h 94 % 0 mm 0.00 W/m2
22:59 7.5 °C 6.4 °C 1015.8 hPa South 19.3 km/h 38.6 km/h 93 % 0 mm 0.00 W/m2
23:04 7.5 °C 6.4 °C 1015.8 hPa SSE 16.1 km/h 32.2 km/h 93 % 0 mm 0.00 W/m2
23:09 7.6 °C 6.5 °C 1016.1 hPa SSE 9.7 km/h 30.6 km/h 93 % 0 mm 0.00 W/m2
23:14 7.6 °C 6.5 °C 1016.1 hPa South 12.9 km/h 29 km/h 93 % 0 mm 0.00 W/m2
23:19 7.6 °C 6.5 °C 1015.8 hPa SSE 12.9 km/h 29 km/h 93 % 0 mm 0.00 W/m2
23:24 7.6 °C 6.5 °C 1015.8 hPa SSE 17.7 km/h 33.8 km/h 93 % 0 mm 0.00 W/m2
23:29 7.6 °C 6.5 °C 1015.5 hPa SSE 25.7 km/h 33.8 km/h 93 % 0 mm 0.00 W/m2
23:34 7.6 °C 6.5 °C 1015.5 hPa ESE 8 km/h 38.6 km/h 93 % 0 mm 0.00 W/m2
23:39 7.6 °C 6.5 °C 1015.1 hPa SSE 9.7 km/h 32.2 km/h 93 % 0 mm 0.00 W/m2
23:44 7.6 °C 6.5 °C 1015.5 hPa SSE 37 km/h 40.2 km/h 93 % 0 mm 0.00 W/m2
23:49 7.6 °C 6.5 °C 1015.1 hPa South 4.8 km/h 32.2 km/h 93 % 0 mm 0.00 W/m2
23:54 7.6 °C 6.5 °C 1014.8 hPa SE 27.4 km/h 40.2 km/h 93 % 0 mm 0.00 W/m2
23:59 7.6 °C 6.5 °C 1014.4 hPa SE 32.2 km/h 38.6 km/h 93 % 0 mm 0.00 W/m2
Juneau County Weather
Compliments of Weather Underground - 4.5 mb
 WU-history PHP script courtesy of   Juneau County Weather.
powered by Cumulus v1.9.3 (1059)
Ambient Weather VWS v14.00
Top Contact Website Map Copyright © 2007 - 2018 Foresthillweather.com Never base important decisions on this or any weather information obtained from the Internet